sensor_id;sensor_type;location;lat;lon;timestamp;P1;durP1;ratioP1;P2;durP2;ratioP2
77262;SDS011;66373;52.334;4.806;2023-02-12T00:01:19;15.43;;;8.90;;
77262;SDS011;66373;52.334;4.806;2023-02-12T00:03:48;15.63;;;8.50;;
77262;SDS011;66373;52.334;4.806;2023-02-12T00:06:15;13.45;;;8.48;;
77262;SDS011;66373;52.334;4.806;2023-02-12T00:08:41;14.10;;;9.65;;
77262;SDS011;66373;52.334;4.806;2023-02-12T00:11:09;18.00;;;8.48;;
77262;SDS011;66373;52.334;4.806;2023-02-12T00:13:38;12.75;;;8.23;;
77262;SDS011;66373;52.334;4.806;2023-02-12T00:16:06;12.88;;;8.48;;
77262;SDS011;66373;52.334;4.806;2023-02-12T00:18:33;15.43;;;9.13;;
77262;SDS011;66373;52.334;4.806;2023-02-12T00:21:02;11.95;;;8.65;;
77262;SDS011;66373;52.334;4.806;2023-02-12T00:23:29;11.13;;;7.90;;
77262;SDS011;66373;52.334;4.806;2023-02-12T00:25:56;12.45;;;7.80;;
77262;SDS011;66373;52.334;4.806;2023-02-12T00:28:23;13.23;;;7.80;;
77262;SDS011;66373;52.334;4.806;2023-02-12T00:30:50;10.02;;;7.72;;
77262;SDS011;66373;52.334;4.806;2023-02-12T00:33:17;10.85;;;7.63;;
77262;SDS011;66373;52.334;4.806;2023-02-12T00:35:44;12.48;;;7.68;;
77262;SDS011;66373;52.334;4.806;2023-02-12T00:38:12;10.38;;;7.15;;
77262;SDS011;66373;52.334;4.806;2023-02-12T00:40:41;12.38;;;7.40;;
77262;SDS011;66373;52.334;4.806;2023-02-12T00:43:08;8.70;;;6.95;;
77262;SDS011;66373;52.334;4.806;2023-02-12T00:45:34;10.10;;;6.97;;
77262;SDS011;66373;52.334;4.806;2023-02-12T00:48:02;10.48;;;7.35;;
77262;SDS011;66373;52.334;4.806;2023-02-12T00:50:29;10.13;;;6.63;;
77262;SDS011;66373;52.334;4.806;2023-02-12T00:52:56;11.52;;;7.20;;
77262;SDS011;66373;52.334;4.806;2023-02-12T00:55:24;13.65;;;6.35;;
77262;SDS011;66373;52.334;4.806;2023-02-12T00:57:51;8.55;;;6.47;;
77262;SDS011;66373;52.334;4.806;2023-02-12T01:00:17;11.25;;;6.57;;
77262;SDS011;66373;52.334;4.806;2023-02-12T01:02:44;8.93;;;6.68;;
77262;SDS011;66373;52.334;4.806;2023-02-12T01:05:12;9.10;;;6.75;;
77262;SDS011;66373;52.334;4.806;2023-02-12T01:07:39;8.45;;;6.28;;
77262;SDS011;66373;52.334;4.806;2023-02-12T01:10:06;11.02;;;6.45;;
77262;SDS011;66373;52.334;4.806;2023-02-12T01:12:35;9.25;;;6.65;;
77262;SDS011;66373;52.334;4.806;2023-02-12T01:15:03;8.73;;;6.28;;
77262;SDS011;66373;52.334;4.806;2023-02-12T01:17:30;9.63;;;6.65;;
77262;SDS011;66373;52.334;4.806;2023-02-12T01:19:57;7.75;;;5.88;;
77262;SDS011;66373;52.334;4.806;2023-02-12T01:22:24;8.48;;;6.43;;
77262;SDS011;66373;52.334;4.806;2023-02-12T01:24:51;7.38;;;5.60;;
77262;SDS011;66373;52.334;4.806;2023-02-12T01:27:17;7.25;;;5.97;;
77262;SDS011;66373;52.334;4.806;2023-02-12T01:29:46;10.73;;;6.47;;
77262;SDS011;66373;52.334;4.806;2023-02-12T01:32:12;8.82;;;5.78;;
77262;SDS011;66373;52.334;4.806;2023-02-12T01:34:39;7.97;;;5.95;;
77262;SDS011;66373;52.334;4.806;2023-02-12T01:37:06;7.95;;;5.40;;
77262;SDS011;66373;52.334;4.806;2023-02-12T01:39:33;7.53;;;5.70;;
77262;SDS011;66373;52.334;4.806;2023-02-12T01:42:00;7.45;;;5.35;;
77262;SDS011;66373;52.334;4.806;2023-02-12T01:44:28;8.60;;;5.63;;
77262;SDS011;66373;52.334;4.806;2023-02-12T01:46:57;8.32;;;6.05;;
77262;SDS011;66373;52.334;4.806;2023-02-12T01:49:25;9.90;;;5.60;;
77262;SDS011;66373;52.334;4.806;2023-02-12T01:51:58;8.20;;;5.63;;
77262;SDS011;66373;52.334;4.806;2023-02-12T01:54:28;6.38;;;5.20;;
77262;SDS011;66373;52.334;4.806;2023-02-12T01:56:57;7.78;;;5.63;;
77262;SDS011;66373;52.334;4.806;2023-02-12T01:59:25;7.05;;;5.40;;
77262;SDS011;66373;52.334;4.806;2023-02-12T02:01:52;6.95;;;5.50;;
77262;SDS011;66373;52.334;4.806;2023-02-12T02:04:22;7.97;;;5.25;;
77262;SDS011;66373;52.334;4.806;2023-02-12T02:06:53;6.95;;;5.30;;
77262;SDS011;66373;52.334;4.806;2023-02-12T02:09:22;8.25;;;6.05;;
77262;SDS011;66373;52.334;4.806;2023-02-12T02:11:53;6.80;;;5.50;;
77262;SDS011;66373;52.334;4.806;2023-02-12T02:14:38;7.53;;;5.05;;
77262;SDS011;66373;52.334;4.806;2023-02-12T02:17:13;10.52;;;5.63;;
77262;SDS011;66373;52.334;4.806;2023-02-12T02:19:59;7.78;;;4.93;;
77262;SDS011;66373;52.334;4.806;2023-02-12T02:23:05;6.78;;;4.95;;
77262;SDS011;66373;52.334;4.806;2023-02-12T02:25:47;7.40;;;5.35;;
77262;SDS011;66373;52.334;4.806;2023-02-12T02:31:28;7.55;;;5.47;;
77262;SDS011;66373;52.334;4.806;2023-02-12T02:34:02;8.57;;;5.45;;
77262;SDS011;66373;52.334;4.806;2023-02-12T02:36:38;7.82;;;5.10;;
77262;SDS011;66373;52.334;4.806;2023-02-12T02:39:12;7.55;;;5.53;;
77262;SDS011;66373;52.334;4.806;2023-02-12T02:41:43;7.28;;;5.68;;
77262;SDS011;66373;52.334;4.806;2023-02-12T02:44:17;6.35;;;4.88;;
77262;SDS011;66373;52.334;4.806;2023-02-12T02:46:50;8.57;;;4.78;;
77262;SDS011;66373;52.334;4.806;2023-02-12T02:49:20;5.90;;;4.68;;
77262;SDS011;66373;52.334;4.806;2023-02-12T02:51:52;5.65;;;5.05;;
77262;SDS011;66373;52.334;4.806;2023-02-12T02:54:22;5.68;;;5.10;;
77262;SDS011;66373;52.334;4.806;2023-02-12T02:56:58;5.97;;;4.75;;
77262;SDS011;66373;52.334;4.806;2023-02-12T02:59:31;7.57;;;5.03;;
77262;SDS011;66373;52.334;4.806;2023-02-12T03:02:05;8.05;;;5.15;;
77262;SDS011;66373;52.334;4.806;2023-02-12T03:04:35;6.00;;;4.72;;
77262;SDS011;66373;52.334;4.806;2023-02-12T03:07:07;5.45;;;4.40;;
77262;SDS011;66373;52.334;4.806;2023-02-12T03:09:37;6.47;;;4.85;;
77262;SDS011;66373;52.334;4.806;2023-02-12T03:12:08;5.80;;;5.05;;
77262;SDS011;66373;52.334;4.806;2023-02-12T03:14:39;5.00;;;4.50;;
77262;SDS011;66373;52.334;4.806;2023-02-12T03:17:12;6.25;;;4.85;;
77262;SDS011;66373;52.334;4.806;2023-02-12T03:19:44;5.40;;;4.32;;
77262;SDS011;66373;52.334;4.806;2023-02-12T03:22:13;5.65;;;4.20;;
77262;SDS011;66373;52.334;4.806;2023-02-12T03:24:44;5.22;;;4.72;;
77262;SDS011;66373;52.334;4.806;2023-02-12T03:27:15;5.00;;;4.03;;
77262;SDS011;66373;52.334;4.806;2023-02-12T03:29:45;5.75;;;4.05;;
77262;SDS011;66373;52.334;4.806;2023-02-12T03:32:17;5.85;;;4.10;;
77262;SDS011;66373;52.334;4.806;2023-02-12T03:34:54;6.82;;;4.55;;
77262;SDS011;66373;52.334;4.806;2023-02-12T03:37:35;6.47;;;4.00;;
77262;SDS011;66373;52.334;4.806;2023-02-12T03:40:07;4.90;;;4.25;;
77262;SDS011;66373;52.334;4.806;2023-02-12T03:42:43;5.57;;;3.92;;
77262;SDS011;66373;52.334;4.806;2023-02-12T03:45:17;5.32;;;3.55;;
77262;SDS011;66373;52.334;4.806;2023-02-12T03:47:54;5.63;;;4.30;;
77262;SDS011;66373;52.334;4.806;2023-02-12T03:50:30;4.53;;;4.10;;
77262;SDS011;66373;52.334;4.806;2023-02-12T03:53:01;4.20;;;3.80;;
77262;SDS011;66373;52.334;4.806;2023-02-12T03:55:28;5.45;;;4.10;;
77262;SDS011;66373;52.334;4.806;2023-02-12T03:57:58;4.38;;;3.88;;
77262;SDS011;66373;52.334;4.806;2023-02-12T04:00:28;4.95;;;3.80;;
77262;SDS011;66373;52.334;4.806;2023-02-12T04:02:57;5.85;;;3.47;;
77262;SDS011;66373;52.334;4.806;2023-02-12T04:05:24;5.75;;;3.83;;
77262;SDS011;66373;52.334;4.806;2023-02-12T04:07:53;5.70;;;3.67;;
77262;SDS011;66373;52.334;4.806;2023-02-12T04:10:25;4.97;;;3.60;;
77262;SDS011;66373;52.334;4.806;2023-02-12T04:12:59;4.28;;;3.67;;
77262;SDS011;66373;52.334;4.806;2023-02-12T04:15:41;4.78;;;3.47;;
77262;SDS011;66373;52.334;4.806;2023-02-12T04:18:18;4.45;;;3.58;;
77262;SDS011;66373;52.334;4.806;2023-02-12T04:20:52;4.38;;;3.85;;
77262;SDS011;66373;52.334;4.806;2023-02-12T04:23:32;3.53;;;3.22;;
77262;SDS011;66373;52.334;4.806;2023-02-12T04:26:10;4.07;;;3.60;;
77262;SDS011;66373;52.334;4.806;2023-02-12T04:28:46;4.93;;;3.58;;
77262;SDS011;66373;52.334;4.806;2023-02-12T04:31:23;4.07;;;3.67;;
77262;SDS011;66373;52.334;4.806;2023-02-12T04:33:59;4.45;;;3.65;;
77262;SDS011;66373;52.334;4.806;2023-02-12T04:36:36;4.25;;;3.85;;
77262;SDS011;66373;52.334;4.806;2023-02-12T04:39:09;4.88;;;3.53;;
77262;SDS011;66373;52.334;4.806;2023-02-12T04:41:40;4.20;;;3.50;;
77262;SDS011;66373;52.334;4.806;2023-02-12T04:44:14;3.97;;;3.55;;
77262;SDS011;66373;52.334;4.806;2023-02-12T04:46:43;4.00;;;3.15;;
77262;SDS011;66373;52.334;4.806;2023-02-12T04:49:12;3.42;;;3.03;;
77262;SDS011;66373;52.334;4.806;2023-02-12T04:51:40;3.83;;;3.40;;
77262;SDS011;66373;52.334;4.806;2023-02-12T04:54:08;4.53;;;3.80;;
77262;SDS011;66373;52.334;4.806;2023-02-12T04:56:35;3.83;;;3.00;;
77262;SDS011;66373;52.334;4.806;2023-02-12T04:59:02;3.60;;;3.03;;
77262;SDS011;66373;52.334;4.806;2023-02-12T05:01:29;3.78;;;3.45;;
77262;SDS011;66373;52.334;4.806;2023-02-12T05:03:58;3.53;;;3.20;;
77262;SDS011;66373;52.334;4.806;2023-02-12T05:06:26;3.92;;;3.00;;
77262;SDS011;66373;52.334;4.806;2023-02-12T05:08:54;3.58;;;3.17;;
77262;SDS011;66373;52.334;4.806;2023-02-12T05:11:21;4.25;;;2.72;;
77262;SDS011;66373;52.334;4.806;2023-02-12T05:13:48;3.05;;;2.80;;
77262;SDS011;66373;52.334;4.806;2023-02-12T05:16:16;4.43;;;3.00;;
77262;SDS011;66373;52.334;4.806;2023-02-12T05:18:43;3.90;;;3.08;;
77262;SDS011;66373;52.334;4.806;2023-02-12T05:21:10;4.05;;;2.83;;
77262;SDS011;66373;52.334;4.806;2023-02-12T05:23:39;7.07;;;3.30;;
77262;SDS011;66373;52.334;4.806;2023-02-12T05:26:07;3.80;;;3.08;;
77262;SDS011;66373;52.334;4.806;2023-02-12T05:28:37;3.20;;;2.90;;
77262;SDS011;66373;52.334;4.806;2023-02-12T05:31:06;3.38;;;2.80;;
77262;SDS011;66373;52.334;4.806;2023-02-12T05:33:33;5.85;;;3.03;;
77262;SDS011;66373;52.334;4.806;2023-02-12T05:36:03;3.30;;;2.97;;
77262;SDS011;66373;52.334;4.806;2023-02-12T05:38:31;3.78;;;3.10;;
77262;SDS011;66373;52.334;4.806;2023-02-12T05:41:03;3.40;;;3.10;;
77262;SDS011;66373;52.334;4.806;2023-02-12T05:43:30;4.32;;;3.10;;
77262;SDS011;66373;52.334;4.806;2023-02-12T05:45:58;4.35;;;3.40;;
77262;SDS011;66373;52.334;4.806;2023-02-12T05:48:25;3.88;;;3.35;;
77262;SDS011;66373;52.334;4.806;2023-02-12T05:50:53;3.60;;;3.30;;
77262;SDS011;66373;52.334;4.806;2023-02-12T05:53:20;3.90;;;3.50;;
77262;SDS011;66373;52.334;4.806;2023-02-12T05:55:46;4.00;;;3.60;;
77262;SDS011;66373;52.334;4.806;2023-02-12T05:58:14;4.88;;;3.70;;
77262;SDS011;66373;52.334;4.806;2023-02-12T06:00:41;4.43;;;3.78;;
77262;SDS011;66373;52.334;4.806;2023-02-12T06:03:08;4.70;;;4.13;;
77262;SDS011;66373;52.334;4.806;2023-02-12T06:05:35;4.78;;;3.75;;
77262;SDS011;66373;52.334;4.806;2023-02-12T06:08:01;5.50;;;4.13;;
77262;SDS011;66373;52.334;4.806;2023-02-12T06:10:28;4.30;;;3.90;;
77262;SDS011;66373;52.334;4.806;2023-02-12T06:12:55;4.68;;;4.28;;
77262;SDS011;66373;52.334;4.806;2023-02-12T06:15:23;5.00;;;4.40;;
77262;SDS011;66373;52.334;4.806;2023-02-12T06:17:50;5.03;;;4.13;;
77262;SDS011;66373;52.334;4.806;2023-02-12T06:20:17;4.53;;;4.13;;
77262;SDS011;66373;52.334;4.806;2023-02-12T06:22:44;5.18;;;4.65;;
77262;SDS011;66373;52.334;4.806;2023-02-12T06:25:10;5.65;;;4.50;;
77262;SDS011;66373;52.334;4.806;2023-02-12T06:27:37;6.03;;;4.65;;
77262;SDS011;66373;52.334;4.806;2023-02-12T06:30:04;7.68;;;4.95;;
77262;SDS011;66373;52.334;4.806;2023-02-12T06:32:33;5.40;;;4.90;;
77262;SDS011;66373;52.334;4.806;2023-02-12T06:35:00;7.72;;;5.78;;
77262;SDS011;66373;52.334;4.806;2023-02-12T06:37:27;7.15;;;5.50;;
77262;SDS011;66373;52.334;4.806;2023-02-12T06:39:54;5.88;;;5.28;;
77262;SDS011;66373;52.334;4.806;2023-02-12T06:42:20;6.72;;;5.30;;
77262;SDS011;66373;52.334;4.806;2023-02-12T06:44:47;7.85;;;5.32;;
77262;SDS011;66373;52.334;4.806;2023-02-12T06:47:14;6.50;;;5.72;;
77262;SDS011;66373;52.334;4.806;2023-02-12T06:49:42;5.72;;;5.18;;
77262;SDS011;66373;52.334;4.806;2023-02-12T06:52:09;11.05;;;5.78;;
77262;SDS011;66373;52.334;4.806;2023-02-12T06:54:35;6.45;;;5.60;;
77262;SDS011;66373;52.334;4.806;2023-02-12T06:57:02;14.55;;;5.65;;
77262;SDS011;66373;52.334;4.806;2023-02-12T06:59:29;6.75;;;5.53;;
77262;SDS011;66373;52.334;4.806;2023-02-12T07:01:56;7.15;;;5.50;;
77262;SDS011;66373;52.334;4.806;2023-02-12T07:04:22;7.10;;;5.57;;
77262;SDS011;66373;52.334;4.806;2023-02-12T07:06:51;6.60;;;5.93;;
77262;SDS011;66373;52.334;4.806;2023-02-12T07:09:18;7.97;;;6.00;;
77262;SDS011;66373;52.334;4.806;2023-02-12T07:11:44;8.55;;;6.20;;
77262;SDS011;66373;52.334;4.806;2023-02-12T07:14:12;6.07;;;5.47;;
77262;SDS011;66373;52.334;4.806;2023-02-12T07:16:39;9.13;;;6.38;;
77262;SDS011;66373;52.334;4.806;2023-02-12T07:19:06;7.45;;;5.60;;
77262;SDS011;66373;52.334;4.806;2023-02-12T07:21:33;7.35;;;6.15;;
77262;SDS011;66373;52.334;4.806;2023-02-12T07:24:02;11.55;;;6.00;;
77262;SDS011;66373;52.334;4.806;2023-02-12T07:26:28;8.20;;;5.82;;
77262;SDS011;66373;52.334;4.806;2023-02-12T07:28:55;6.95;;;5.45;;
77262;SDS011;66373;52.334;4.806;2023-02-12T07:31:23;10.68;;;6.00;;
77262;SDS011;66373;52.334;4.806;2023-02-12T07:33:52;8.27;;;5.68;;
77262;SDS011;66373;52.334;4.806;2023-02-12T07:36:19;7.78;;;5.65;;
77262;SDS011;66373;52.334;4.806;2023-02-12T07:38:46;7.85;;;5.45;;
77262;SDS011;66373;52.334;4.806;2023-02-12T07:41:15;6.80;;;5.53;;
77262;SDS011;66373;52.334;4.806;2023-02-12T07:43:44;7.78;;;5.00;;
77262;SDS011;66373;52.334;4.806;2023-02-12T07:46:13;8.05;;;5.53;;
77262;SDS011;66373;52.334;4.806;2023-02-12T07:48:41;6.68;;;5.45;;
77262;SDS011;66373;52.334;4.806;2023-02-12T07:51:09;8.63;;;5.80;;
77262;SDS011;66373;52.334;4.806;2023-02-12T07:53:37;8.07;;;5.32;;
77262;SDS011;66373;52.334;4.806;2023-02-12T07:56:06;6.68;;;5.50;;
77262;SDS011;66373;52.334;4.806;2023-02-12T07:58:35;7.57;;;5.80;;
77262;SDS011;66373;52.334;4.806;2023-02-12T08:01:10;5.78;;;4.97;;
77262;SDS011;66373;52.334;4.806;2023-02-12T08:03:41;8.40;;;5.15;;
77262;SDS011;66373;52.334;4.806;2023-02-12T08:06:10;8.73;;;5.63;;
77262;SDS011;66373;52.334;4.806;2023-02-12T08:08:38;6.35;;;5.32;;
77262;SDS011;66373;52.334;4.806;2023-02-12T08:11:05;6.97;;;5.30;;
77262;SDS011;66373;52.334;4.806;2023-02-12T08:13:35;7.13;;;4.82;;
77262;SDS011;66373;52.334;4.806;2023-02-12T08:16:03;5.47;;;4.97;;
77262;SDS011;66373;52.334;4.806;2023-02-12T08:18:32;6.95;;;5.28;;
77262;SDS011;66373;52.334;4.806;2023-02-12T08:21:00;7.63;;;5.13;;
77262;SDS011;66373;52.334;4.806;2023-02-12T08:23:29;6.72;;;5.05;;
77262;SDS011;66373;52.334;4.806;2023-02-12T08:26:03;9.45;;;4.78;;
77262;SDS011;66373;52.334;4.806;2023-02-12T08:28:30;6.00;;;4.93;;
77262;SDS011;66373;52.334;4.806;2023-02-12T08:31:00;8.23;;;4.88;;
77262;SDS011;66373;52.334;4.806;2023-02-12T08:33:27;7.05;;;5.13;;
77262;SDS011;66373;52.334;4.806;2023-02-12T08:36:04;5.72;;;4.78;;
77262;SDS011;66373;52.334;4.806;2023-02-12T08:38:34;6.78;;;4.55;;
77262;SDS011;66373;52.334;4.806;2023-02-12T08:41:01;6.80;;;4.88;;
77262;SDS011;66373;52.334;4.806;2023-02-12T08:43:29;5.10;;;4.60;;
77262;SDS011;66373;52.334;4.806;2023-02-12T08:46:01;11.65;;;5.20;;
77262;SDS011;66373;52.334;4.806;2023-02-12T08:48:29;5.45;;;4.90;;
77262;SDS011;66373;52.334;4.806;2023-02-12T08:50:55;7.25;;;4.18;;
77262;SDS011;66373;52.334;4.806;2023-02-12T08:53:28;8.18;;;4.55;;
77262;SDS011;66373;52.334;4.806;2023-02-12T08:55:55;6.72;;;4.68;;
77262;SDS011;66373;52.334;4.806;2023-02-12T08:58:21;6.25;;;4.53;;
77262;SDS011;66373;52.334;4.806;2023-02-12T09:00:48;7.35;;;4.20;;
77262;SDS011;66373;52.334;4.806;2023-02-12T09:03:16;6.22;;;4.20;;
77262;SDS011;66373;52.334;4.806;2023-02-12T09:12:08;9.05;;;5.20;;
77262;SDS011;66373;52.334;4.806;2023-02-12T09:14:37;8.63;;;4.03;;
77262;SDS011;66373;52.334;4.806;2023-02-12T09:44:35;6.80;;;4.05;;
77262;SDS011;66373;52.334;4.806;2023-02-12T09:47:10;5.93;;;3.75;;
77262;SDS011;66373;52.334;4.806;2023-02-12T09:52:41;11.85;;;3.90;;
77262;SDS011;66373;52.334;4.806;2023-02-12T09:55:15;5.70;;;4.00;;
77262;SDS011;66373;52.334;4.806;2023-02-12T09:57:44;4.28;;;3.58;;
77262;SDS011;66373;52.334;4.806;2023-02-12T10:00:13;10.40;;;4.15;;
77262;SDS011;66373;52.334;4.806;2023-02-12T10:02:46;4.22;;;3.83;;
77262;SDS011;66373;52.334;4.806;2023-02-12T10:05:18;4.03;;;3.65;;
77262;SDS011;66373;52.334;4.806;2023-02-12T10:07:58;7.50;;;4.10;;
77262;SDS011;66373;52.334;4.806;2023-02-12T10:10:45;5.38;;;3.90;;
77262;SDS011;66373;52.334;4.806;2023-02-12T10:13:21;5.55;;;3.75;;
77262;SDS011;66373;52.334;4.806;2023-02-12T10:16:01;8.02;;;3.92;;
77262;SDS011;66373;52.334;4.806;2023-02-12T10:18:45;6.35;;;3.97;;
77262;SDS011;66373;52.334;4.806;2023-02-12T10:21:39;6.20;;;3.78;;
77262;SDS011;66373;52.334;4.806;2023-02-12T10:27:15;8.25;;;3.28;;
77262;SDS011;66373;52.334;4.806;2023-02-12T10:29:46;6.47;;;4.03;;
77262;SDS011;66373;52.334;4.806;2023-02-12T10:32:18;5.43;;;3.17;;
77262;SDS011;66373;52.334;4.806;2023-02-12T10:34:51;3.72;;;3.10;;
77262;SDS011;66373;52.334;4.806;2023-02-12T10:37:24;8.27;;;3.83;;
77262;SDS011;66373;52.334;4.806;2023-02-12T10:39:59;3.42;;;3.15;;
77262;SDS011;66373;52.334;4.806;2023-02-12T10:42:34;5.13;;;4.18;;
77262;SDS011;66373;52.334;4.806;2023-02-12T10:45:05;8.82;;;3.35;;
77262;SDS011;66373;52.334;4.806;2023-02-12T10:47:38;6.35;;;3.15;;
77262;SDS011;66373;52.334;4.806;2023-02-12T10:52:55;5.40;;;3.50;;
77262;SDS011;66373;52.334;4.806;2023-02-12T10:55:26;5.20;;;3.13;;
77262;SDS011;66373;52.334;4.806;2023-02-12T10:57:58;3.75;;;3.38;;
77262;SDS011;66373;52.334;4.806;2023-02-12T11:00:28;5.10;;;3.22;;
77262;SDS011;66373;52.334;4.806;2023-02-12T11:03:05;8.68;;;3.22;;
77262;SDS011;66373;52.334;4.806;2023-02-12T11:05:48;7.40;;;3.70;;
77262;SDS011;66373;52.334;4.806;2023-02-12T11:08:25;9.77;;;3.42;;
77262;SDS011;66373;52.334;4.806;2023-02-12T11:11:01;5.72;;;3.00;;
77262;SDS011;66373;52.334;4.806;2023-02-12T11:13:32;10.50;;;3.55;;
77262;SDS011;66373;52.334;4.806;2023-02-12T11:15:59;6.10;;;3.38;;
77262;SDS011;66373;52.334;4.806;2023-02-12T11:18:27;5.10;;;3.17;;
77262;SDS011;66373;52.334;4.806;2023-02-12T11:20:58;7.43;;;3.42;;
77262;SDS011;66373;52.334;4.806;2023-02-12T11:23:28;7.25;;;3.30;;
77262;SDS011;66373;52.334;4.806;2023-02-12T11:25:58;11.88;;;3.22;;
77262;SDS011;66373;52.334;4.806;2023-02-12T11:28:27;4.10;;;3.33;;
77262;SDS011;66373;52.334;4.806;2023-02-12T11:30:57;10.80;;;3.33;;
77262;SDS011;66373;52.334;4.806;2023-02-12T11:33:30;6.60;;;3.65;;
77262;SDS011;66373;52.334;4.806;2023-02-12T11:36:00;7.72;;;3.08;;
77262;SDS011;66373;52.334;4.806;2023-02-12T11:38:32;10.18;;;3.60;;
77262;SDS011;66373;52.334;4.806;2023-02-12T11:41:06;8.18;;;3.00;;
77262;SDS011;66373;52.334;4.806;2023-02-12T11:43:45;7.45;;;3.42;;
77262;SDS011;66373;52.334;4.806;2023-02-12T11:46:17;9.80;;;3.80;;
77262;SDS011;66373;52.334;4.806;2023-02-12T11:48:47;6.47;;;3.40;;
77262;SDS011;66373;52.334;4.806;2023-02-12T11:51:17;6.20;;;3.40;;
77262;SDS011;66373;52.334;4.806;2023-02-12T11:53:48;8.32;;;3.53;;
77262;SDS011;66373;52.334;4.806;2023-02-12T11:56:17;7.32;;;3.55;;
77262;SDS011;66373;52.334;4.806;2023-02-12T11:58:45;3.53;;;2.78;;
77262;SDS011;66373;52.334;4.806;2023-02-12T12:01:15;7.40;;;3.10;;
77262;SDS011;66373;52.334;4.806;2023-02-12T12:03:48;8.43;;;3.03;;
77262;SDS011;66373;52.334;4.806;2023-02-12T12:06:32;9.77;;;3.20;;
77262;SDS011;66373;52.334;4.806;2023-02-12T12:09:05;6.03;;;2.90;;
77262;SDS011;66373;52.334;4.806;2023-02-12T12:11:41;6.85;;;2.72;;
77262;SDS011;66373;52.334;4.806;2023-02-12T12:14:19;4.00;;;2.88;;
77262;SDS011;66373;52.334;4.806;2023-02-12T12:16:53;4.95;;;2.75;;
77262;SDS011;66373;52.334;4.806;2023-02-12T12:19:46;4.05;;;2.53;;
77262;SDS011;66373;52.334;4.806;2023-02-12T12:22:22;10.23;;;3.50;;
77262;SDS011;66373;52.334;4.806;2023-02-12T12:25:04;7.07;;;3.00;;
77262;SDS011;66373;52.334;4.806;2023-02-12T12:27:37;6.00;;;2.83;;
77262;SDS011;66373;52.334;4.806;2023-02-12T12:30:55;7.13;;;2.72;;
77262;SDS011;66373;52.334;4.806;2023-02-12T12:33:36;7.10;;;3.08;;
77262;SDS011;66373;52.334;4.806;2023-02-12T12:39:11;4.57;;;2.88;;
77262;SDS011;66373;52.334;4.806;2023-02-12T12:41:53;7.18;;;2.80;;
77262;SDS011;66373;52.334;4.806;2023-02-12T12:44:45;6.05;;;2.70;;
77262;SDS011;66373;52.334;4.806;2023-02-12T12:47:31;5.40;;;2.92;;
77262;SDS011;66373;52.334;4.806;2023-02-12T12:50:19;6.20;;;3.00;;
77262;SDS011;66373;52.334;4.806;2023-02-12T12:52:58;7.45;;;2.92;;
77262;SDS011;66373;52.334;4.806;2023-02-12T12:58:49;4.90;;;2.65;;
77262;SDS011;66373;52.334;4.806;2023-02-12T13:04:44;3.47;;;3.13;;
77262;SDS011;66373;52.334;4.806;2023-02-12T13:07:35;5.65;;;3.08;;
77262;SDS011;66373;52.334;4.806;2023-02-12T13:10:14;2.70;;;2.50;;
77262;SDS011;66373;52.334;4.806;2023-02-12T13:12:55;5.03;;;3.22;;
77262;SDS011;66373;52.334;4.806;2023-02-12T13:15:35;6.93;;;2.85;;
77262;SDS011;66373;52.334;4.806;2023-02-12T13:18:13;3.88;;;3.13;;
77262;SDS011;66373;52.334;4.806;2023-02-12T13:20:51;5.03;;;2.85;;
77262;SDS011;66373;52.334;4.806;2023-02-12T13:23:40;4.30;;;2.90;;
77262;SDS011;66373;52.334;4.806;2023-02-12T13:26:23;4.75;;;2.80;;
77262;SDS011;66373;52.334;4.806;2023-02-12T13:29:15;4.07;;;2.60;;
77262;SDS011;66373;52.334;4.806;2023-02-12T13:31:50;5.28;;;2.83;;
77262;SDS011;66373;52.334;4.806;2023-02-12T13:34:28;5.32;;;3.17;;
77262;SDS011;66373;52.334;4.806;2023-02-12T13:37:00;4.18;;;2.65;;
77262;SDS011;66373;52.334;4.806;2023-02-12T13:39:33;5.88;;;2.95;;
77262;SDS011;66373;52.334;4.806;2023-02-12T13:42:09;6.47;;;3.25;;
77262;SDS011;66373;52.334;4.806;2023-02-12T13:44:49;5.93;;;3.20;;
77262;SDS011;66373;52.334;4.806;2023-02-12T13:47:25;3.58;;;3.28;;
77262;SDS011;66373;52.334;4.806;2023-02-12T13:50:10;5.72;;;3.08;;
77262;SDS011;66373;52.334;4.806;2023-02-12T13:52:55;5.25;;;3.08;;
77262;SDS011;66373;52.334;4.806;2023-02-12T13:55:30;6.00;;;3.75;;
77262;SDS011;66373;52.334;4.806;2023-02-12T14:00:56;5.68;;;3.22;;
77262;SDS011;66373;52.334;4.806;2023-02-12T14:03:25;3.97;;;3.20;;
77262;SDS011;66373;52.334;4.806;2023-02-12T14:06:07;8.70;;;3.42;;
77262;SDS011;66373;52.334;4.806;2023-02-12T14:08:40;10.45;;;3.42;;
77262;SDS011;66373;52.334;4.806;2023-02-12T14:11:13;5.32;;;3.20;;
77262;SDS011;66373;52.334;4.806;2023-02-12T14:13:45;5.50;;;3.45;;
77262;SDS011;66373;52.334;4.806;2023-02-12T14:16:19;6.38;;;3.88;;
77262;SDS011;66373;52.334;4.806;2023-02-12T14:22:11;6.07;;;3.53;;
77262;SDS011;66373;52.334;4.806;2023-02-12T14:25:04;4.38;;;3.45;;
77262;SDS011;66373;52.334;4.806;2023-02-12T14:28:08;5.05;;;3.20;;
77262;SDS011;66373;52.334;4.806;2023-02-12T14:37:17;4.63;;;3.47;;
77262;SDS011;66373;52.334;4.806;2023-02-12T14:46:41;4.97;;;3.55;;
77262;SDS011;66373;52.334;4.806;2023-02-12T14:49:03;4.03;;;3.63;;
77262;SDS011;66373;52.334;4.806;2023-02-12T14:51:35;8.98;;;3.85;;
77262;SDS011;66373;52.334;4.806;2023-02-12T14:54:10;7.38;;;3.58;;
77262;SDS011;66373;52.334;4.806;2023-02-12T14:56:43;6.07;;;3.85;;
77262;SDS011;66373;52.334;4.806;2023-02-12T14:59:15;4.38;;;3.83;;
77262;SDS011;66373;52.334;4.806;2023-02-12T15:01:47;6.70;;;3.35;;
77262;SDS011;66373;52.334;4.806;2023-02-12T15:04:16;5.45;;;3.72;;
77262;SDS011;66373;52.334;4.806;2023-02-12T15:06:50;6.85;;;3.80;;
77262;SDS011;66373;52.334;4.806;2023-02-12T15:09:23;7.38;;;3.53;;
77262;SDS011;66373;52.334;4.806;2023-02-12T15:11:57;8.07;;;4.20;;
77262;SDS011;66373;52.334;4.806;2023-02-12T15:14:33;4.63;;;3.55;;
77262;SDS011;66373;52.334;4.806;2023-02-12T15:17:09;5.63;;;3.83;;
77262;SDS011;66373;52.334;4.806;2023-02-12T15:19:45;8.27;;;3.75;;
77262;SDS011;66373;52.334;4.806;2023-02-12T15:22:21;5.10;;;3.38;;
77262;SDS011;66373;52.334;4.806;2023-02-12T15:24:50;6.10;;;3.22;;
77262;SDS011;66373;52.334;4.806;2023-02-12T15:27:18;5.63;;;3.63;;
77262;SDS011;66373;52.334;4.806;2023-02-12T15:29:49;4.18;;;3.65;;
77262;SDS011;66373;52.334;4.806;2023-02-12T15:32:21;5.28;;;3.75;;
77262;SDS011;66373;52.334;4.806;2023-02-12T15:34:50;3.90;;;3.38;;
77262;SDS011;66373;52.334;4.806;2023-02-12T15:37:20;4.10;;;3.22;;
77262;SDS011;66373;52.334;4.806;2023-02-12T15:39:51;5.50;;;3.72;;
77262;SDS011;66373;52.334;4.806;2023-02-12T15:44:51;4.43;;;3.38;;
77262;SDS011;66373;52.334;4.806;2023-02-12T15:47:27;4.63;;;3.20;;
77262;SDS011;66373;52.334;4.806;2023-02-12T15:49:57;3.80;;;3.40;;
77262;SDS011;66373;52.334;4.806;2023-02-12T15:52:26;4.57;;;3.60;;
77262;SDS011;66373;52.334;4.806;2023-02-12T15:54:59;3.95;;;3.33;;
77262;SDS011;66373;52.334;4.806;2023-02-12T15:57:29;4.95;;;3.72;;
77262;SDS011;66373;52.334;4.806;2023-02-12T16:00:02;4.05;;;3.47;;
77262;SDS011;66373;52.334;4.806;2023-02-12T16:02:38;4.03;;;3.13;;
77262;SDS011;66373;52.334;4.806;2023-02-12T16:05:05;5.97;;;3.40;;
77262;SDS011;66373;52.334;4.806;2023-02-12T16:07:34;5.25;;;3.38;;
77262;SDS011;66373;52.334;4.806;2023-02-12T16:10:06;3.55;;;3.25;;
77262;SDS011;66373;52.334;4.806;2023-02-12T16:12:34;4.28;;;3.60;;
77262;SDS011;66373;52.334;4.806;2023-02-12T16:15:04;6.70;;;3.45;;
77262;SDS011;66373;52.334;4.806;2023-02-12T16:17:34;3.97;;;3.42;;
77262;SDS011;66373;52.334;4.806;2023-02-12T16:20:04;3.75;;;3.15;;
77262;SDS011;66373;52.334;4.806;2023-02-12T16:22:46;4.20;;;3.25;;
77262;SDS011;66373;52.334;4.806;2023-02-12T16:25:17;4.65;;;3.28;;
77262;SDS011;66373;52.334;4.806;2023-02-12T16:27:52;5.50;;;3.42;;
77262;SDS011;66373;52.334;4.806;2023-02-12T16:30:26;7.72;;;3.40;;